sensor_id;sensor_type;location;lat;lon;timestamp;P1;durP1;ratioP1;P2;durP2;ratioP2
35893;SDS011;21994;48.204;16.516;2022-10-16T00:01:26;4.70;;;2.63;;
35893;SDS011;21994;48.204;16.516;2022-10-16T00:03:55;4.43;;;2.90;;
35893;SDS011;21994;48.204;16.516;2022-10-16T00:06:23;7.07;;;3.55;;
35893;SDS011;21994;48.204;16.516;2022-10-16T00:08:50;3.25;;;2.70;;
35893;SDS011;21994;48.204;16.516;2022-10-16T00:11:21;4.13;;;2.70;;
35893;SDS011;21994;48.204;16.516;2022-10-16T00:13:50;3.95;;;2.92;;
35893;SDS011;21994;48.204;16.516;2022-10-16T00:16:20;5.32;;;3.95;;
35893;SDS011;21994;48.204;16.516;2022-10-16T00:18:46;3.03;;;2.78;;
35893;SDS011;21994;48.204;16.516;2022-10-16T00:21:17;4.68;;;3.50;;
35893;SDS011;21994;48.204;16.516;2022-10-16T00:23:46;3.45;;;2.35;;
35893;SDS011;21994;48.204;16.516;2022-10-16T00:26:16;2.28;;;2.08;;
35893;SDS011;21994;48.204;16.516;2022-10-16T00:28:45;3.60;;;2.08;;
35893;SDS011;21994;48.204;16.516;2022-10-16T00:31:18;3.50;;;2.83;;
35893;SDS011;21994;48.204;16.516;2022-10-16T00:33:46;2.60;;;1.88;;
35893;SDS011;21994;48.204;16.516;2022-10-16T00:36:13;2.08;;;1.73;;
35893;SDS011;21994;48.204;16.516;2022-10-16T00:38:42;4.18;;;3.78;;
35893;SDS011;21994;48.204;16.516;2022-10-16T00:41:16;5.93;;;3.25;;
35893;SDS011;21994;48.204;16.516;2022-10-16T00:43:43;4.75;;;3.35;;
35893;SDS011;21994;48.204;16.516;2022-10-16T00:48:48;4.25;;;1.85;;
35893;SDS011;21994;48.204;16.516;2022-10-16T00:51:29;6.03;;;3.22;;
35893;SDS011;21994;48.204;16.516;2022-10-16T00:54:19;3.63;;;2.35;;
35893;SDS011;21994;48.204;16.516;2022-10-16T00:56:58;2.63;;;2.42;;
35893;SDS011;21994;48.204;16.516;2022-10-16T00:59:31;2.80;;;2.13;;
35893;SDS011;21994;48.204;16.516;2022-10-16T01:02:04;5.30;;;3.30;;
35893;SDS011;21994;48.204;16.516;2022-10-16T01:04:37;3.22;;;2.92;;
35893;SDS011;21994;48.204;16.516;2022-10-16T01:13:00;3.90;;;3.50;;
35893;SDS011;21994;48.204;16.516;2022-10-16T01:22:23;1.90;;;1.75;;
35893;SDS011;21994;48.204;16.516;2022-10-16T01:25:03;2.37;;;1.83;;
35893;SDS011;21994;48.204;16.516;2022-10-16T01:27:34;2.40;;;2.13;;
35893;SDS011;21994;48.204;16.516;2022-10-16T01:30:21;3.28;;;2.70;;
35893;SDS011;21994;48.204;16.516;2022-10-16T01:33:02;6.03;;;1.98;;
35893;SDS011;21994;48.204;16.516;2022-10-16T01:35:37;4.97;;;3.17;;
35893;SDS011;21994;48.204;16.516;2022-10-16T01:38:12;5.05;;;2.47;;
35893;SDS011;21994;48.204;16.516;2022-10-16T01:41:16;3.97;;;1.20;;
35893;SDS011;21994;48.204;16.516;2022-10-16T01:43:53;4.55;;;1.92;;
35893;SDS011;21994;48.204;16.516;2022-10-16T01:46:30;1.98;;;1.63;;
35893;SDS011;21994;48.204;16.516;2022-10-16T01:48:57;3.53;;;3.00;;
35893;SDS011;21994;48.204;16.516;2022-10-16T01:51:25;4.15;;;2.88;;
35893;SDS011;21994;48.204;16.516;2022-10-16T01:53:53;7.03;;;3.00;;
35893;SDS011;21994;48.204;16.516;2022-10-16T01:56:22;2.28;;;1.70;;
35893;SDS011;21994;48.204;16.516;2022-10-16T02:01:38;3.05;;;1.77;;
35893;SDS011;21994;48.204;16.516;2022-10-16T02:04:15;2.50;;;1.73;;
35893;SDS011;21994;48.204;16.516;2022-10-16T02:07:01;2.45;;;2.25;;
35893;SDS011;21994;48.204;16.516;2022-10-16T02:09:27;6.03;;;2.50;;
35893;SDS011;21994;48.204;16.516;2022-10-16T02:11:56;3.13;;;2.72;;
35893;SDS011;21994;48.204;16.516;2022-10-16T02:14:24;1.55;;;1.25;;
35893;SDS011;21994;48.204;16.516;2022-10-16T02:16:51;2.80;;;2.38;;
35893;SDS011;21994;48.204;16.516;2022-10-16T02:19:17;4.82;;;2.63;;
35893;SDS011;21994;48.204;16.516;2022-10-16T02:21:54;1.30;;;1.08;;
35893;SDS011;21994;48.204;16.516;2022-10-16T02:29:33;3.28;;;2.28;;
35893;SDS011;21994;48.204;16.516;2022-10-16T02:32:04;3.45;;;2.60;;
35893;SDS011;21994;48.204;16.516;2022-10-16T02:34:32;4.00;;;2.75;;
35893;SDS011;21994;48.204;16.516;2022-10-16T02:36:59;5.60;;;3.38;;
35893;SDS011;21994;48.204;16.516;2022-10-16T02:39:27;3.35;;;2.38;;
35893;SDS011;21994;48.204;16.516;2022-10-16T02:41:54;2.33;;;2.08;;
35893;SDS011;21994;48.204;16.516;2022-10-16T02:44:20;4.10;;;2.83;;
35893;SDS011;21994;48.204;16.516;2022-10-16T02:46:46;6.07;;;2.35;;
35893;SDS011;21994;48.204;16.516;2022-10-16T02:49:12;3.38;;;2.28;;
35893;SDS011;21994;48.204;16.516;2022-10-16T02:51:37;4.03;;;2.25;;
35893;SDS011;21994;48.204;16.516;2022-10-16T02:54:03;1.65;;;1.55;;
35893;SDS011;21994;48.204;16.516;2022-10-16T02:56:29;2.70;;;2.38;;
35893;SDS011;21994;48.204;16.516;2022-10-16T02:58:56;2.58;;;2.38;;
35893;SDS011;21994;48.204;16.516;2022-10-16T03:01:22;2.70;;;1.65;;
35893;SDS011;21994;48.204;16.516;2022-10-16T03:03:48;3.42;;;2.38;;
35893;SDS011;21994;48.204;16.516;2022-10-16T03:06:15;5.90;;;2.40;;
35893;SDS011;21994;48.204;16.516;2022-10-16T03:08:41;2.67;;;2.38;;
35893;SDS011;21994;48.204;16.516;2022-10-16T03:11:06;2.15;;;1.58;;
35893;SDS011;21994;48.204;16.516;2022-10-16T03:13:32;4.00;;;3.38;;
35893;SDS011;21994;48.204;16.516;2022-10-16T03:15:58;3.15;;;2.78;;
35893;SDS011;21994;48.204;16.516;2022-10-16T03:18:24;3.45;;;2.47;;
35893;SDS011;21994;48.204;16.516;2022-10-16T03:20:50;3.00;;;1.98;;
35893;SDS011;21994;48.204;16.516;2022-10-16T03:23:16;2.60;;;2.15;;
35893;SDS011;21994;48.204;16.516;2022-10-16T03:25:41;4.07;;;2.65;;
35893;SDS011;21994;48.204;16.516;2022-10-16T03:28:07;4.63;;;2.38;;
35893;SDS011;21994;48.204;16.516;2022-10-16T03:30:34;3.47;;;3.13;;
35893;SDS011;21994;48.204;16.516;2022-10-16T03:33:00;3.55;;;2.97;;
35893;SDS011;21994;48.204;16.516;2022-10-16T03:35:25;2.97;;;2.33;;
35893;SDS011;21994;48.204;16.516;2022-10-16T03:37:51;5.75;;;3.70;;
35893;SDS011;21994;48.204;16.516;2022-10-16T03:40:17;3.33;;;1.92;;
35893;SDS011;21994;48.204;16.516;2022-10-16T03:42:44;2.92;;;2.35;;
35893;SDS011;21994;48.204;16.516;2022-10-16T03:45:10;5.28;;;2.17;;
35893;SDS011;21994;48.204;16.516;2022-10-16T03:47:36;2.97;;;2.20;;
35893;SDS011;21994;48.204;16.516;2022-10-16T03:50:03;2.15;;;1.98;;
35893;SDS011;21994;48.204;16.516;2022-10-16T03:52:29;4.05;;;2.55;;
35893;SDS011;21994;48.204;16.516;2022-10-16T03:54:57;1.75;;;1.65;;
35893;SDS011;21994;48.204;16.516;2022-10-16T03:57:23;2.90;;;2.50;;
35893;SDS011;21994;48.204;16.516;2022-10-16T03:59:49;1.83;;;1.73;;
35893;SDS011;21994;48.204;16.516;2022-10-16T04:02:15;3.40;;;1.88;;
35893;SDS011;21994;48.204;16.516;2022-10-16T04:04:41;5.70;;;2.60;;
35893;SDS011;21994;48.204;16.516;2022-10-16T04:07:07;3.83;;;3.10;;
35893;SDS011;21994;48.204;16.516;2022-10-16T04:09:33;3.35;;;1.77;;
35893;SDS011;21994;48.204;16.516;2022-10-16T04:11:59;2.85;;;1.63;;
35893;SDS011;21994;48.204;16.516;2022-10-16T04:14:25;3.60;;;2.47;;
35893;SDS011;21994;48.204;16.516;2022-10-16T04:16:50;5.40;;;2.13;;
35893;SDS011;21994;48.204;16.516;2022-10-16T04:19:16;5.38;;;3.90;;
35893;SDS011;21994;48.204;16.516;2022-10-16T04:21:42;4.20;;;2.08;;
35893;SDS011;21994;48.204;16.516;2022-10-16T04:24:08;4.10;;;2.95;;
35893;SDS011;21994;48.204;16.516;2022-10-16T04:26:33;3.22;;;2.38;;
35893;SDS011;21994;48.204;16.516;2022-10-16T04:28:59;4.25;;;2.75;;
35893;SDS011;21994;48.204;16.516;2022-10-16T04:31:25;3.92;;;2.83;;
35893;SDS011;21994;48.204;16.516;2022-10-16T04:33:51;3.40;;;2.58;;
35893;SDS011;21994;48.204;16.516;2022-10-16T04:36:17;3.35;;;2.97;;
35893;SDS011;21994;48.204;16.516;2022-10-16T04:38:43;2.63;;;1.95;;
35893;SDS011;21994;48.204;16.516;2022-10-16T04:41:08;2.83;;;2.35;;
35893;SDS011;21994;48.204;16.516;2022-10-16T04:43:34;4.35;;;3.42;;
35893;SDS011;21994;48.204;16.516;2022-10-16T04:46:00;3.20;;;2.80;;
35893;SDS011;21994;48.204;16.516;2022-10-16T04:48:26;5.72;;;3.17;;
35893;SDS011;21994;48.204;16.516;2022-10-16T04:50:52;2.58;;;2.38;;
35893;SDS011;21994;48.204;16.516;2022-10-16T04:53:18;4.53;;;2.80;;
35893;SDS011;21994;48.204;16.516;2022-10-16T04:55:44;5.00;;;3.05;;
35893;SDS011;21994;48.204;16.516;2022-10-16T04:58:10;5.32;;;2.38;;
35893;SDS011;21994;48.204;16.516;2022-10-16T05:00:36;3.63;;;1.95;;
35893;SDS011;21994;48.204;16.516;2022-10-16T05:03:03;5.45;;;3.17;;
35893;SDS011;21994;48.204;16.516;2022-10-16T05:05:33;7.28;;;4.25;;
35893;SDS011;21994;48.204;16.516;2022-10-16T05:08:00;8.52;;;6.13;;
35893;SDS011;21994;48.204;16.516;2022-10-16T05:10:26;2.85;;;2.47;;
35893;SDS011;21994;48.204;16.516;2022-10-16T05:12:52;3.75;;;3.20;;
35893;SDS011;21994;48.204;16.516;2022-10-16T05:15:18;4.43;;;3.42;;
35893;SDS011;21994;48.204;16.516;2022-10-16T05:17:44;5.43;;;4.13;;
35893;SDS011;21994;48.204;16.516;2022-10-16T05:20:10;4.65;;;3.03;;
35893;SDS011;21994;48.204;16.516;2022-10-16T05:22:36;7.50;;;5.03;;
35893;SDS011;21994;48.204;16.516;2022-10-16T05:25:02;6.30;;;3.35;;
35893;SDS011;21994;48.204;16.516;2022-10-16T05:27:29;6.57;;;5.20;;
35893;SDS011;21994;48.204;16.516;2022-10-16T05:29:54;15.65;;;6.28;;
35893;SDS011;21994;48.204;16.516;2022-10-16T05:32:20;8.60;;;5.32;;
35893;SDS011;21994;48.204;16.516;2022-10-16T05:34:46;12.57;;;5.05;;
35893;SDS011;21994;48.204;16.516;2022-10-16T05:37:12;7.28;;;4.88;;
35893;SDS011;21994;48.204;16.516;2022-10-16T05:39:38;7.15;;;3.15;;
35893;SDS011;21994;48.204;16.516;2022-10-16T05:42:04;8.82;;;6.43;;
35893;SDS011;21994;48.204;16.516;2022-10-16T05:44:30;10.18;;;4.90;;
35893;SDS011;21994;48.204;16.516;2022-10-16T05:46:56;7.07;;;5.05;;
35893;SDS011;21994;48.204;16.516;2022-10-16T05:49:22;9.05;;;4.75;;
35893;SDS011;21994;48.204;16.516;2022-10-16T05:51:48;3.42;;;2.80;;
35893;SDS011;21994;48.204;16.516;2022-10-16T05:54:14;8.60;;;3.58;;
35893;SDS011;21994;48.204;16.516;2022-10-16T05:56:40;9.57;;;6.93;;
35893;SDS011;21994;48.204;16.516;2022-10-16T05:59:05;8.95;;;6.47;;
35893;SDS011;21994;48.204;16.516;2022-10-16T06:01:31;6.63;;;3.92;;
35893;SDS011;21994;48.204;16.516;2022-10-16T06:03:57;7.45;;;3.85;;
35893;SDS011;21994;48.204;16.516;2022-10-16T06:06:25;6.10;;;4.05;;
35893;SDS011;21994;48.204;16.516;2022-10-16T06:08:53;7.97;;;4.47;;
35893;SDS011;21994;48.204;16.516;2022-10-16T06:11:24;9.98;;;5.82;;
35893;SDS011;21994;48.204;16.516;2022-10-16T06:13:56;7.63;;;6.10;;
35893;SDS011;21994;48.204;16.516;2022-10-16T06:16:26;7.63;;;6.18;;
35893;SDS011;21994;48.204;16.516;2022-10-16T06:18:53;12.20;;;3.53;;
35893;SDS011;21994;48.204;16.516;2022-10-16T06:21:27;9.27;;;4.55;;
35893;SDS011;21994;48.204;16.516;2022-10-16T06:23:54;7.43;;;4.57;;
35893;SDS011;21994;48.204;16.516;2022-10-16T06:26:22;7.07;;;3.65;;
35893;SDS011;21994;48.204;16.516;2022-10-16T06:28:50;11.00;;;5.78;;
35893;SDS011;21994;48.204;16.516;2022-10-16T06:31:16;10.43;;;5.80;;
35893;SDS011;21994;48.204;16.516;2022-10-16T06:33:42;4.75;;;4.28;;
35893;SDS011;21994;48.204;16.516;2022-10-16T06:36:14;7.47;;;4.43;;
35893;SDS011;21994;48.204;16.516;2022-10-16T06:38:42;7.47;;;5.57;;
35893;SDS011;21994;48.204;16.516;2022-10-16T06:41:13;12.60;;;6.28;;
35893;SDS011;21994;48.204;16.516;2022-10-16T06:43:41;4.18;;;3.17;;
35893;SDS011;21994;48.204;16.516;2022-10-16T06:46:09;9.77;;;6.13;;
35893;SDS011;21994;48.204;16.516;2022-10-16T06:48:36;6.05;;;5.05;;
35893;SDS011;21994;48.204;16.516;2022-10-16T06:51:04;9.23;;;6.70;;
35893;SDS011;21994;48.204;16.516;2022-10-16T06:53:35;10.60;;;5.93;;
35893;SDS011;21994;48.204;16.516;2022-10-16T06:56:10;6.60;;;4.85;;
35893;SDS011;21994;48.204;16.516;2022-10-16T06:58:45;6.80;;;5.47;;
35893;SDS011;21994;48.204;16.516;2022-10-16T07:01:11;11.00;;;6.22;;
35893;SDS011;21994;48.204;16.516;2022-10-16T07:03:38;7.75;;;6.47;;
35893;SDS011;21994;48.204;16.516;2022-10-16T07:06:09;10.02;;;6.97;;
35893;SDS011;21994;48.204;16.516;2022-10-16T07:08:38;11.57;;;7.15;;
35893;SDS011;21994;48.204;16.516;2022-10-16T07:11:08;12.95;;;7.38;;
35893;SDS011;21994;48.204;16.516;2022-10-16T07:13:43;12.95;;;5.75;;
35893;SDS011;21994;48.204;16.516;2022-10-16T07:16:17;12.55;;;5.93;;
35893;SDS011;21994;48.204;16.516;2022-10-16T07:18:45;12.93;;;7.47;;
35893;SDS011;21994;48.204;16.516;2022-10-16T07:21:14;12.82;;;7.78;;
35893;SDS011;21994;48.204;16.516;2022-10-16T07:23:44;12.38;;;6.38;;
35893;SDS011;21994;48.204;16.516;2022-10-16T07:26:10;13.35;;;9.23;;
35893;SDS011;21994;48.204;16.516;2022-10-16T07:28:36;12.02;;;9.88;;
35893;SDS011;21994;48.204;16.516;2022-10-16T07:31:05;10.05;;;7.72;;
35893;SDS011;21994;48.204;16.516;2022-10-16T07:33:38;7.35;;;4.45;;
35893;SDS011;21994;48.204;16.516;2022-10-16T07:36:08;15.35;;;6.78;;
35893;SDS011;21994;48.204;16.516;2022-10-16T07:38:34;10.73;;;7.30;;
35893;SDS011;21994;48.204;16.516;2022-10-16T07:41:00;13.60;;;7.30;;
35893;SDS011;21994;48.204;16.516;2022-10-16T07:43:29;12.15;;;6.70;;
35893;SDS011;21994;48.204;16.516;2022-10-16T07:45:55;11.82;;;8.10;;
35893;SDS011;21994;48.204;16.516;2022-10-16T07:48:22;13.50;;;9.15;;
35893;SDS011;21994;48.204;16.516;2022-10-16T07:50:51;17.88;;;8.18;;
35893;SDS011;21994;48.204;16.516;2022-10-16T07:53:17;13.65;;;8.68;;
35893;SDS011;21994;48.204;16.516;2022-10-16T07:55:43;11.98;;;6.38;;
35893;SDS011;21994;48.204;16.516;2022-10-16T07:58:09;14.68;;;6.88;;
35893;SDS011;21994;48.204;16.516;2022-10-16T08:00:35;15.07;;;9.57;;
35893;SDS011;21994;48.204;16.516;2022-10-16T08:03:02;8.05;;;5.95;;
35893;SDS011;21994;48.204;16.516;2022-10-16T08:05:29;14.80;;;6.82;;
35893;SDS011;21994;48.204;16.516;2022-10-16T08:07:57;9.27;;;6.82;;
35893;SDS011;21994;48.204;16.516;2022-10-16T08:10:23;10.98;;;7.72;;
35893;SDS011;21994;48.204;16.516;2022-10-16T08:12:51;10.45;;;6.75;;
35893;SDS011;21994;48.204;16.516;2022-10-16T08:15:18;6.30;;;5.53;;
35893;SDS011;21994;48.204;16.516;2022-10-16T08:17:44;17.20;;;9.93;;
35893;SDS011;21994;48.204;16.516;2022-10-16T08:20:22;13.50;;;8.23;;
35893;SDS011;21994;48.204;16.516;2022-10-16T08:22:48;18.15;;;8.63;;
35893;SDS011;21994;48.204;16.516;2022-10-16T08:25:14;12.30;;;8.13;;
35893;SDS011;21994;48.204;16.516;2022-10-16T08:27:40;14.27;;;9.45;;
35893;SDS011;21994;48.204;16.516;2022-10-16T08:30:07;11.80;;;7.57;;
35893;SDS011;21994;48.204;16.516;2022-10-16T08:32:34;9.60;;;6.40;;
35893;SDS011;21994;48.204;16.516;2022-10-16T08:34:59;8.13;;;4.20;;
35893;SDS011;21994;48.204;16.516;2022-10-16T08:37:29;10.55;;;6.45;;
35893;SDS011;21994;48.204;16.516;2022-10-16T08:50:27;11.52;;;6.78;;
35893;SDS011;21994;48.204;16.516;2022-10-16T08:52:55;9.00;;;4.18;;
35893;SDS011;21994;48.204;16.516;2022-10-16T08:58:12;12.20;;;7.25;;
35893;SDS011;21994;48.204;16.516;2022-10-16T09:00:39;10.73;;;7.53;;
35893;SDS011;21994;48.204;16.516;2022-10-16T09:12:43;16.42;;;8.27;;
35893;SDS011;21994;48.204;16.516;2022-10-16T09:15:47;17.33;;;8.37;;
35893;SDS011;21994;48.204;16.516;2022-10-16T09:21:44;10.45;;;5.65;;
35893;SDS011;21994;48.204;16.516;2022-10-16T09:24:20;10.40;;;5.15;;
35893;SDS011;21994;48.204;16.516;2022-10-16T09:26:49;7.97;;;5.72;;
35893;SDS011;21994;48.204;16.516;2022-10-16T09:29:16;8.70;;;6.07;;
35893;SDS011;21994;48.204;16.516;2022-10-16T09:31:50;14.07;;;6.10;;
35893;SDS011;21994;48.204;16.516;2022-10-16T09:36:56;8.90;;;5.75;;
35893;SDS011;21994;48.204;16.516;2022-10-16T09:39:24;9.68;;;7.32;;
35893;SDS011;21994;48.204;16.516;2022-10-16T09:41:50;11.75;;;6.90;;
35893;SDS011;21994;48.204;16.516;2022-10-16T09:44:26;12.25;;;6.22;;
35893;SDS011;21994;48.204;16.516;2022-10-16T09:47:05;11.55;;;6.82;;
35893;SDS011;21994;48.204;16.516;2022-10-16T09:49:52;9.07;;;6.00;;
35893;SDS011;21994;48.204;16.516;2022-10-16T09:52:20;6.60;;;3.97;;
35893;SDS011;21994;48.204;16.516;2022-10-16T09:55:01;8.38;;;4.47;;
35893;SDS011;21994;48.204;16.516;2022-10-16T09:57:48;11.77;;;6.20;;
35893;SDS011;21994;48.204;16.516;2022-10-16T10:00:21;13.13;;;6.57;;
35893;SDS011;21994;48.204;16.516;2022-10-16T10:02:49;8.48;;;4.20;;
35893;SDS011;21994;48.204;16.516;2022-10-16T10:07:54;9.90;;;5.85;;
35893;SDS011;21994;48.204;16.516;2022-10-16T10:10:39;8.20;;;5.28;;
35893;SDS011;21994;48.204;16.516;2022-10-16T10:13:18;8.27;;;4.90;;
35893;SDS011;21994;48.204;16.516;2022-10-16T10:15:46;11.20;;;5.22;;
35893;SDS011;21994;48.204;16.516;2022-10-16T10:18:16;7.75;;;4.65;;
35893;SDS011;21994;48.204;16.516;2022-10-16T10:20:46;8.73;;;4.07;;
35893;SDS011;21994;48.204;16.516;2022-10-16T10:23:25;9.15;;;4.88;;
35893;SDS011;21994;48.204;16.516;2022-10-16T10:25:59;8.55;;;5.10;;
35893;SDS011;21994;48.204;16.516;2022-10-16T10:28:53;13.73;;;7.00;;
35893;SDS011;21994;48.204;16.516;2022-10-16T10:34:49;6.43;;;3.92;;
35893;SDS011;21994;48.204;16.516;2022-10-16T10:37:47;10.77;;;5.50;;
35893;SDS011;21994;48.204;16.516;2022-10-16T10:46:02;11.63;;;5.32;;
35893;SDS011;21994;48.204;16.516;2022-10-16T10:51:20;9.05;;;5.22;;
35893;SDS011;21994;48.204;16.516;2022-10-16T10:54:28;6.88;;;5.13;;
35893;SDS011;21994;48.204;16.516;2022-10-16T11:02:56;12.10;;;7.25;;
35893;SDS011;21994;48.204;16.516;2022-10-16T11:06:08;8.10;;;5.40;;
35893;SDS011;21994;48.204;16.516;2022-10-16T11:09:21;9.27;;;4.65;;
35893;SDS011;21994;48.204;16.516;2022-10-16T11:11:54;12.60;;;6.18;;
35893;SDS011;21994;48.204;16.516;2022-10-16T11:14:58;10.25;;;6.53;;
35893;SDS011;21994;48.204;16.516;2022-10-16T11:17:48;10.32;;;6.78;;
35893;SDS011;21994;48.204;16.516;2022-10-16T11:22:54;9.18;;;5.68;;
35893;SDS011;21994;48.204;16.516;2022-10-16T11:25:36;9.32;;;4.50;;
35893;SDS011;21994;48.204;16.516;2022-10-16T11:28:14;8.85;;;5.20;;
35893;SDS011;21994;48.204;16.516;2022-10-16T11:30:49;11.57;;;6.43;;
35893;SDS011;21994;48.204;16.516;2022-10-16T11:33:30;12.07;;;6.25;;
35893;SDS011;21994;48.204;16.516;2022-10-16T11:36:12;11.15;;;5.40;;
35893;SDS011;21994;48.204;16.516;2022-10-16T11:38:52;12.55;;;6.38;;
35893;SDS011;21994;48.204;16.516;2022-10-16T11:41:33;13.18;;;6.53;;
35893;SDS011;21994;48.204;16.516;2022-10-16T11:47:15;13.07;;;7.40;;
35893;SDS011;21994;48.204;16.516;2022-10-16T11:49:47;9.35;;;6.60;;
35893;SDS011;21994;48.204;16.516;2022-10-16T11:52:23;10.60;;;6.10;;
35893;SDS011;21994;48.204;16.516;2022-10-16T11:55:01;10.23;;;5.78;;
35893;SDS011;21994;48.204;16.516;2022-10-16T11:57:31;10.40;;;5.70;;
35893;SDS011;21994;48.204;16.516;2022-10-16T12:00:14;12.45;;;5.80;;
35893;SDS011;21994;48.204;16.516;2022-10-16T12:05:58;13.07;;;6.40;;
35893;SDS011;21994;48.204;16.516;2022-10-16T12:08:49;10.02;;;5.30;;
35893;SDS011;21994;48.204;16.516;2022-10-16T12:11:24;11.40;;;5.95;;
35893;SDS011;21994;48.204;16.516;2022-10-16T12:16:38;15.27;;;6.55;;
35893;SDS011;21994;48.204;16.516;2022-10-16T12:19:20;11.82;;;4.85;;
35893;SDS011;21994;48.204;16.516;2022-10-16T12:21:48;9.25;;;5.75;;
35893;SDS011;21994;48.204;16.516;2022-10-16T12:27:20;8.93;;;5.47;;
35893;SDS011;21994;48.204;16.516;2022-10-16T12:29:57;10.73;;;4.88;;
35893;SDS011;21994;48.204;16.516;2022-10-16T12:35:02;7.95;;;5.32;;
35893;SDS011;21994;48.204;16.516;2022-10-16T12:37:31;11.13;;;6.75;;
35893;SDS011;21994;48.204;16.516;2022-10-16T12:39:59;10.13;;;5.35;;
35893;SDS011;21994;48.204;16.516;2022-10-16T12:42:39;10.32;;;5.10;;
35893;SDS011;21994;48.204;16.516;2022-10-16T12:50:31;13.18;;;6.32;;
35893;SDS011;21994;48.204;16.516;2022-10-16T12:53:01;7.88;;;4.80;;
35893;SDS011;21994;48.204;16.516;2022-10-16T12:55:42;10.80;;;6.68;;
35893;SDS011;21994;48.204;16.516;2022-10-16T13:01:20;8.23;;;4.32;;
35893;SDS011;21994;48.204;16.516;2022-10-16T13:06:51;10.05;;;5.55;;
35893;SDS011;21994;48.204;16.516;2022-10-16T13:10:21;12.38;;;6.32;;
35893;SDS011;21994;48.204;16.516;2022-10-16T13:16:10;11.05;;;5.72;;
35893;SDS011;21994;48.204;16.516;2022-10-16T13:19:01;8.38;;;4.90;;
35893;SDS011;21994;48.204;16.516;2022-10-16T13:22:20;9.75;;;5.38;;
35893;SDS011;21994;48.204;16.516;2022-10-16T13:25:15;9.82;;;5.72;;
35893;SDS011;21994;48.204;16.516;2022-10-16T13:28:27;8.30;;;5.78;;
35893;SDS011;21994;48.204;16.516;2022-10-16T13:30:58;8.13;;;4.22;;
35893;SDS011;21994;48.204;16.516;2022-10-16T13:36:03;11.10;;;4.85;;
35893;SDS011;21994;48.204;16.516;2022-10-16T13:38:31;7.10;;;4.50;;
35893;SDS011;21994;48.204;16.516;2022-10-16T13:43:32;4.38;;;3.03;;
35893;SDS011;21994;48.204;16.516;2022-10-16T13:46:02;8.27;;;5.22;;
35893;SDS011;21994;48.204;16.516;2022-10-16T13:48:31;11.90;;;5.60;;
35893;SDS011;21994;48.204;16.516;2022-10-16T13:51:05;6.18;;;4.45;;
35893;SDS011;21994;48.204;16.516;2022-10-16T13:53:43;9.25;;;4.90;;
35893;SDS011;21994;48.204;16.516;2022-10-16T13:56:11;9.65;;;3.97;;
35893;SDS011;21994;48.204;16.516;2022-10-16T13:58:40;11.95;;;6.75;;
35893;SDS011;21994;48.204;16.516;2022-10-16T14:01:25;7.25;;;3.35;;
35893;SDS011;21994;48.204;16.516;2022-10-16T14:04:00;8.38;;;5.07;;
35893;SDS011;21994;48.204;16.516;2022-10-16T14:06:31;11.20;;;5.22;;
35893;SDS011;21994;48.204;16.516;2022-10-16T14:09:05;7.05;;;4.78;;
35893;SDS011;21994;48.204;16.516;2022-10-16T14:11:51;5.45;;;3.95;;
35893;SDS011;21994;48.204;16.516;2022-10-16T14:14:21;7.40;;;5.00;;
35893;SDS011;21994;48.204;16.516;2022-10-16T14:16:48;8.05;;;4.80;;
35893;SDS011;21994;48.204;16.516;2022-10-16T14:19:27;10.07;;;5.38;;
35893;SDS011;21994;48.204;16.516;2022-10-16T14:21:54;10.35;;;4.90;;
35893;SDS011;21994;48.204;16.516;2022-10-16T14:24:26;9.02;;;4.03;;
35893;SDS011;21994;48.204;16.516;2022-10-16T14:26:58;7.30;;;4.32;;
35893;SDS011;21994;48.204;16.516;2022-10-16T14:29:26;9.65;;;4.45;;
35893;SDS011;21994;48.204;16.516;2022-10-16T14:37:06;11.00;;;3.92;;
35893;SDS011;21994;48.204;16.516;2022-10-16T14:39:52;8.65;;;4.50;;
35893;SDS011;21994;48.204;16.516;2022-10-16T14:42:20;8.13;;;4.27;;
35893;SDS011;21994;48.204;16.516;2022-10-16T14:44:49;5.68;;;3.70;;
35893;SDS011;21994;48.204;16.516;2022-10-16T14:49:51;5.20;;;3.22;;
35893;SDS011;21994;48.204;16.516;2022-10-16T14:52:24;7.43;;;3.95;;
35893;SDS011;21994;48.204;16.516;2022-10-16T14:54:50;6.15;;;3.72;;
35893;SDS011;21994;48.204;16.516;2022-10-16T14:57:20;9.32;;;4.78;;
35893;SDS011;21994;48.204;16.516;2022-10-16T14:59:49;5.95;;;3.70;;
35893;SDS011;21994;48.204;16.516;2022-10-16T15:02:22;6.18;;;3.42;;
35893;SDS011;21994;48.204;16.516;2022-10-16T15:07:52;10.20;;;4.88;;
35893;SDS011;21994;48.204;16.516;2022-10-16T15:10:20;7.82;;;3.90;;
35893;SDS011;21994;48.204;16.516;2022-10-16T15:12:48;6.63;;;4.13;;
35893;SDS011;21994;48.204;16.516;2022-10-16T15:17:59;7.28;;;3.60;;
35893;SDS011;21994;48.204;16.516;2022-10-16T15:20:30;11.95;;;4.00;;
35893;SDS011;21994;48.204;16.516;2022-10-16T15:23:02;9.98;;;3.83;;
35893;SDS011;21994;48.204;16.516;2022-10-16T15:25:44;8.07;;;4.25;;
35893;SDS011;21994;48.204;16.516;2022-10-16T15:28:14;7.32;;;4.00;;
35893;SDS011;21994;48.204;16.516;2022-10-16T15:30:41;8.00;;;4.68;;
35893;SDS011;21994;48.204;16.516;2022-10-16T15:33:20;10.25;;;4.90;;
35893;SDS011;21994;48.204;16.516;2022-10-16T15:35:49;7.18;;;3.95;;
35893;SDS011;21994;48.204;16.516;2022-10-16T15:38:17;7.13;;;3.55;;
35893;SDS011;21994;48.204;16.516;2022-10-16T15:40:47;8.40;;;5.45;;
35893;SDS011;21994;48.204;16.516;2022-10-16T15:43:14;6.70;;;3.08;;
35893;SDS011;21994;48.204;16.516;2022-10-16T15:45:40;7.03;;;4.78;;
35893;SDS011;21994;48.204;16.516;2022-10-16T15:48:08;7.75;;;3.83;;
35893;SDS011;21994;48.204;16.516;2022-10-16T15:50:39;8.50;;;3.90;;
35893;SDS011;21994;48.204;16.516;2022-10-16T15:53:08;7.57;;;3.50;;
35893;SDS011;21994;48.204;16.516;2022-10-16T15:55:34;11.45;;;4.38;;
35893;SDS011;21994;48.204;16.516;2022-10-16T15:58:03;6.38;;;3.20;;
35893;SDS011;21994;48.204;16.516;2022-10-16T16:00:29;5.30;;;3.28;;
35893;SDS011;21994;48.204;16.516;2022-10-16T16:02:55;6.90;;;3.47;;
35893;SDS011;21994;48.204;16.516;2022-10-16T16:05:21;6.28;;;3.90;;
35893;SDS011;21994;48.204;16.516;2022-10-16T16:07:48;9.05;;;3.42;;
35893;SDS011;21994;48.204;16.516;2022-10-16T16:10:15;7.22;;;3.42;;
35893;SDS011;21994;48.204;16.516;2022-10-16T16:12:41;6.55;;;3.40;;
35893;SDS011;21994;48.204;16.516;2022-10-16T16:15:08;7.03;;;3.92;;
35893;SDS011;21994;48.204;16.516;2022-10-16T16:17:34;6.50;;;3.05;;
35893;SDS011;21994;48.204;16.516;2022-10-16T16:20:01;6.40;;;3.70;;
35893;SDS011;21994;48.204;16.516;2022-10-16T16:22:29;6.72;;;3.83;;
35893;SDS011;21994;48.204;16.516;2022-10-16T16:24:55;5.93;;;3.60;;
35893;SDS011;21994;48.204;16.516;2022-10-16T16:27:21;5.82;;;3.72;;
35893;SDS011;21994;48.204;16.516;2022-10-16T16:29:49;5.80;;;3.53;;
35893;SDS011;21994;48.204;16.516;2022-10-16T16:32:15;27.10;;;4.55;;
35893;SDS011;21994;48.204;16.516;2022-10-16T16:34:53;5.32;;;2.95;;
35893;SDS011;21994;48.204;16.516;2022-10-16T16:37:18;5.95;;;3.05;;
35893;SDS011;21994;48.204;16.516;2022-10-16T16:39:44;4.53;;;3.70;;
35893;SDS011;21994;48.204;16.516;2022-10-16T16:42:10;7.88;;;5.03;;
35893;SDS011;21994;48.204;16.516;2022-10-16T16:44:36;7.43;;;4.15;;
35893;SDS011;21994;48.204;16.516;2022-10-16T16:47:03;6.18;;;3.33;;
35893;SDS011;21994;48.204;16.516;2022-10-16T16:49:31;6.82;;;3.92;;
35893;SDS011;21994;48.204;16.516;2022-10-16T16:51:58;5.88;;;2.90;;
35893;SDS011;21994;48.204;16.516;2022-10-16T16:54:24;7.70;;;4.85;;
35893;SDS011;21994;48.204;16.516;2022-10-16T16:56:50;5.82;;;2.58;;